Time;durP1;ratioP1;P1;durP2;ratioP2;P2;SDS_P1;SDS_P2;PMS_P1;PMS_P2;Temp;Humidity;BMP_temperature;BMP_pressure;BME280_temperature;BME280_humidity;BME280_pressure;Samples;Min_cycle;Max_cycle;Signal;HPM_P1;HPM_P2
2021/07/01 00:00:18;;;;;;;1.42;1.30;;;17.70;88.30;;;;;;2058019;28;20025;-73
2021/07/01 00:01:19;;;;;;;1.50;1.40;;;17.70;88.40;;;;;;2057419;28;20030;-70
2021/07/01 00:02:19;;;;;;;3.15;1.50;;;17.70;87.90;;;;;;2058715;28;20589;-71
2021/07/01 00:03:20;;;;;;;2.08;1.60;;;17.70;88.00;;;;;;2057564;28;20035;-70
2021/07/01 00:04:24;;;;;;;3.85;1.65;;;17.70;87.90;;;;;;2056958;28;20035;-70
2021/07/01 00:05:25;;;;;;;1.55;1.42;;;17.70;87.90;;;;;;2056673;28;20023;-70
2021/07/01 00:06:26;;;;;;;3.58;1.70;;;17.70;88.00;;;;;;2056089;28;20391;-69
2021/07/01 00:07:27;;;;;;;2.83;1.75;;;17.70;88.20;;;;;;2056187;28;20123;-70
2021/07/01 00:08:27;;;;;;;1.60;1.50;;;17.70;87.90;;;;;;2055620;28;20199;-72
2021/07/01 00:09:28;;;;;;;2.65;1.50;;;17.60;87.90;;;;;;2055645;28;20023;-71
2021/07/01 00:10:29;;;;;;;1.88;1.50;;;17.60;88.10;;;;;;2055893;28;20050;-72
2021/07/01 00:11:30;;;;;;;2.60;1.67;;;17.60;88.10;;;;;;2055880;28;20129;-72
2021/07/01 00:12:32;;;;;;;2.42;1.60;;;17.60;87.90;;;;;;2047822;28;20031;-71
2021/07/01 00:13:33;;;;;;;2.90;1.50;;;17.60;88.00;;;;;;2055884;28;20031;-70
2021/07/01 00:14:33;;;;;;;1.65;1.55;;;17.60;87.80;;;;;;2048203;28;20031;-70
2021/07/01 00:15:35;;;;;;;2.58;1.40;;;17.60;88.10;;;;;;2040106;29;20079;-71
2021/07/01 00:16:36;;;;;;;1.48;1.38;;;17.60;87.90;;;;;;2048072;28;20035;-71
2021/07/01 00:17:36;;;;;;;1.67;1.58;;;17.60;88.00;;;;;;2055819;28;20076;-72
2021/07/01 00:18:37;;;;;;;2.78;1.80;;;17.60;87.90;;;;;;2056753;28;20027;-71
2021/07/01 00:19:37;;;;;;;3.85;2.00;;;17.60;88.20;;;;;;2054760;28;20105;-70
2021/07/01 00:20:38;;;;;;;3.17;1.92;;;17.60;88.20;;;;;;2056511;28;20124;-70
2021/07/01 00:21:39;;;;;;;2.80;1.60;;;17.60;88.00;;;;;;2055831;28;20478;-71
2021/07/01 00:22:40;;;;;;;2.50;1.60;;;17.60;87.90;;;;;;2055974;28;20486;-71
2021/07/01 00:23:40;;;;;;;1.70;1.60;;;17.60;88.20;;;;;;2056807;28;20097;-71
2021/07/01 00:24:41;;;;;;;2.45;1.60;;;17.60;87.90;;;;;;2056609;28;20491;-72
2021/07/01 00:25:42;;;;;;;2.70;1.77;;;17.60;88.00;;;;;;2056118;28;20033;-71
2021/07/01 00:26:43;;;;;;;1.60;1.50;;;17.60;87.80;;;;;;2048337;28;20102;-73
2021/07/01 00:27:44;;;;;;;2.90;1.63;;;17.60;88.00;;;;;;2056196;28;20078;-72
2021/07/01 00:28:45;;;;;;;1.60;1.50;;;17.60;88.50;;;;;;2056416;28;20921;-71
2021/07/01 00:29:46;;;;;;;1.63;1.52;;;17.60;87.50;;;;;;2056480;28;20035;-70
2021/07/01 00:30:46;;;;;;;5.75;1.55;;;17.60;87.40;;;;;;2047926;29;20057;-71
2021/07/01 00:31:47;;;;;;;6.90;1.65;;;17.60;88.00;;;;;;2047867;29;20488;-71
2021/07/01 00:32:48;;;;;;;1.60;1.50;;;17.50;86.90;;;;;;2056131;28;20031;-70
2021/07/01 00:33:51;;;;;;;1.50;1.40;;;17.60;87.40;;;;;;2056342;28;20167;-70
2021/07/01 00:34:52;;;;;;;2.40;1.70;;;17.60;87.80;;;;;;2056493;28;20026;-70
2021/07/01 00:35:53;;;;;;;1.90;1.60;;;17.60;87.30;;;;;;2055631;28;20033;-71
2021/07/01 00:36:53;;;;;;;1.60;1.50;;;17.50;87.40;;;;;;2055728;28;20027;-70
2021/07/01 00:37:54;;;;;;;1.60;1.50;;;17.60;87.30;;;;;;2056143;28;20035;-71
2021/07/01 00:38:54;;;;;;;3.13;1.40;;;17.60;87.20;;;;;;2055903;28;20041;-70
2021/07/01 00:39:56;;;;;;;2.05;1.40;;;17.60;87.60;;;;;;2055731;28;20372;-71
2021/07/01 00:40:57;;;;;;;2.10;1.60;;;17.60;87.40;;;;;;2055781;28;20493;-71
2021/07/01 00:41:58;;;;;;;1.50;1.40;;;17.50;87.30;;;;;;2055671;28;20498;-71
2021/07/01 00:42:59;;;;;;;2.45;1.60;;;17.50;87.40;;;;;;2055748;28;20023;-71
2021/07/01 00:44:01;;;;;;;3.30;1.60;;;17.50;87.50;;;;;;2056276;28;20030;-71
2021/07/01 00:45:05;;;;;;;2.13;1.50;;;17.50;87.70;;;;;;2055648;28;20034;-70
2021/07/01 00:46:08;;;;;;;3.40;1.58;;;17.40;87.70;;;;;;2055518;28;20110;-71
2021/07/01 00:47:09;;;;;;;1.98;1.58;;;17.40;88.10;;;;;;2055935;28;20026;-71
2021/07/01 00:48:10;;;;;;;2.22;1.45;;;17.30;88.20;;;;;;2055537;28;20487;-71
2021/07/01 00:49:11;;;;;;;4.35;1.50;;;17.30;87.90;;;;;;2054381;28;20487;-70
2021/07/01 00:50:13;;;;;;;2.97;1.60;;;17.30;88.40;;;;;;2055478;28;20034;-71
2021/07/01 00:51:14;;;;;;;2.40;1.42;;;17.20;88.50;;;;;;2055622;28;20023;-70
2021/07/01 00:52:14;;;;;;;3.55;1.65;;;17.30;89.00;;;;;;2055604;28;20081;-70
2021/07/01 00:53:15;;;;;;;2.65;1.60;;;17.20;88.10;;;;;;2039719;28;20058;-71
2021/07/01 00:54:16;;;;;;;1.40;1.40;;;17.20;88.40;;;;;;2047850;28;20038;-70
2021/07/01 00:55:18;;;;;;;3.20;1.45;;;17.20;88.80;;;;;;2056284;28;20471;-70
2021/07/01 00:56:19;;;;;;;2.15;1.48;;;17.10;89.10;;;;;;2055669;28;20019;-71
2021/07/01 00:57:22;;;;;;;2.42;1.50;;;17.10;89.10;;;;;;2055877;28;20087;-71
2021/07/01 00:58:23;;;;;;;3.97;1.50;;;17.10;89.30;;;;;;2047812;28;20785;-70
2021/07/01 00:59:24;;;;;;;2.15;1.70;;;17.10;89.30;;;;;;2047444;28;20435;-70
2021/07/01 01:01:44;;;;;;;2.28;1.60;;;17.10;89.10;;;;;;2055952;28;20470;-71
2021/07/01 01:02:45;;;;;;;5.75;1.70;;;17.10;89.50;;;;;;2056261;28;20031;-70
2021/07/01 01:03:50;;;;;;;1.50;1.40;;;17.10;89.40;;;;;;2047521;29;20050;-72
2021/07/01 01:04:51;;;;;;;2.00;1.60;;;17.00;89.50;;;;;;2048331;28;20035;-73
2021/07/01 01:05:52;;;;;;;2.33;1.60;;;17.10;89.70;;;;;;2055782;28;20030;-71
2021/07/01 01:06:52;;;;;;;1.67;1.30;;;17.10;89.80;;;;;;2056485;28;20031;-71
2021/07/01 01:07:53;;;;;;;2.47;1.58;;;17.10;90.00;;;;;;2056436;28;20050;-71
2021/07/01 01:08:56;;;;;;;1.60;1.50;;;17.10;90.20;;;;;;2055160;28;20026;-70
2021/07/01 01:09:57;;;;;;;3.53;1.63;;;17.10;90.00;;;;;;2047948;28;20020;-70
2021/07/01 01:10:59;;;;;;;3.67;1.70;;;17.10;90.10;;;;;;2047582;28;20059;-72
2021/07/01 01:12:16;;;;;;;1.92;1.50;;;17.10;90.10;;;;;;2055925;28;20022;-70
2021/07/01 01:13:24;;;;;;;1.80;1.70;;;17.10;90.10;;;;;;2055450;28;20740;-72
2021/07/01 01:14:43;;;;;;;2.08;1.50;;;17.10;90.00;;;;;;2050457;28;20429;-71
2021/07/01 01:15:46;;;;;;;1.95;1.60;;;17.10;90.00;;;;;;2047837;28;20031;-71
2021/07/01 01:16:47;;;;;;;3.17;1.85;;;17.00;90.00;;;;;;2047643;28;20685;-72
2021/07/01 01:17:47;;;;;;;1.80;1.70;;;17.00;90.00;;;;;;2039720;29;20119;-72
2021/07/01 01:18:50;;;;;;;2.10;1.90;;;17.00;90.10;;;;;;2038999;28;20511;-71
2021/07/01 01:19:51;;;;;;;3.88;2.03;;;17.00;90.20;;;;;;2054652;28;20522;-72
2021/07/01 01:20:54;;;;;;;1.60;1.50;;;17.00;90.50;;;;;;2055290;28;20121;-71
2021/07/01 01:21:54;;;;;;;1.80;1.70;;;16.90;90.50;;;;;;2055434;28;20110;-72
2021/07/01 01:22:56;;;;;;;1.88;1.77;;;16.90;90.40;;;;;;2055484;28;20026;-72
2021/07/01 01:23:58;;;;;;;3.03;1.75;;;16.90;90.50;;;;;;2055642;28;20073;-72
2021/07/01 01:24:59;;;;;;;2.15;1.80;;;16.90;90.40;;;;;;2056294;28;20082;-72
2021/07/01 01:26:01;;;;;;;2.58;1.80;;;16.80;90.60;;;;;;2055671;28;20170;-72
2021/07/01 01:27:14;;;;;;;2.05;1.90;;;16.80;90.70;;;;;;2049264;28;20035;-72
2021/07/01 01:28:17;;;;;;;3.03;1.80;;;16.90;90.90;;;;;;2047674;28;20031;-72
2021/07/01 01:29:20;;;;;;;1.92;1.80;;;16.80;90.90;;;;;;2047388;28;20023;-72
2021/07/01 01:30:21;;;;;;;1.88;1.65;;;16.80;91.00;;;;;;2055757;28;20099;-72
2021/07/01 01:31:22;;;;;;;2.13;1.65;;;16.80;91.10;;;;;;2056429;28;20083;-72
2021/07/01 01:32:23;;;;;;;2.33;1.90;;;16.80;91.10;;;;;;2055396;28;20038;-71
2021/07/01 01:33:25;;;;;;;4.18;1.80;;;16.80;91.30;;;;;;2055356;28;20062;-72
2021/07/01 01:34:27;;;;;;;3.20;1.90;;;16.80;91.30;;;;;;2047556;28;20031;-72
2021/07/01 01:35:28;;;;;;;2.13;1.92;;;16.70;91.40;;;;;;2047721;28;20019;-71
2021/07/01 01:36:28;;;;;;;4.80;2.00;;;16.70;91.40;;;;;;2055672;28;20030;-71
2021/07/01 01:37:30;;;;;;;4.38;1.90;;;16.70;91.10;;;;;;2055463;28;20033;-75
2021/07/01 01:38:31;;;;;;;2.40;1.80;;;16.70;91.00;;;;;;2055443;28;20031;-71
2021/07/01 01:39:50;;;;;;;2.53;2.00;;;16.70;91.10;;;;;;2055320;28;20034;-72
2021/07/01 01:40:51;;;;;;;2.15;1.95;;;16.70;91.20;;;;;;2055445;28;20105;-72
2021/07/01 01:41:53;;;;;;;2.05;1.85;;;16.70;91.40;;;;;;2055417;28;20030;-71
2021/07/01 01:42:54;;;;;;;1.90;1.80;;;16.70;91.60;;;;;;2047452;28;20023;-72
2021/07/01 01:43:56;;;;;;;2.25;1.70;;;16.70;91.90;;;;;;2055489;28;20095;-72
2021/07/01 01:44:56;;;;;;;2.30;2.10;;;16.70;91.50;;;;;;2056076;28;20031;-71
2021/07/01 01:45:57;;;;;;;2.00;1.70;;;16.80;91.60;;;;;;2055334;28;20048;-72
2021/07/01 01:46:58;;;;;;;2.47;2.00;;;16.80;91.60;;;;;;2055507;28;20038;-72
2021/07/01 01:47:58;;;;;;;3.72;1.90;;;16.80;91.30;;;;;;2055436;28;20130;-72
2021/07/01 01:48:59;;;;;;;2.20;2.00;;;16.70;91.40;;;;;;2045437;28;20744;-72
2021/07/01 01:50:00;;;;;;;3.03;1.90;;;16.70;91.40;;;;;;2047359;28;20035;-72
2021/07/01 01:51:03;;;;;;;2.70;1.90;;;16.80;91.50;;;;;;2047662;28;20032;-72
2021/07/01 01:52:04;;;;;;;3.55;1.83;;;16.80;91.20;;;;;;2055461;28;20619;-72
2021/07/01 01:53:06;;;;;;;3.33;1.90;;;16.80;91.20;;;;;;2056165;28;20799;-71
2021/07/01 01:54:07;;;;;;;2.00;1.90;;;16.80;91.30;;;;;;2055293;28;20038;-71
2021/07/01 01:55:12;;;;;;;2.13;2.00;;;16.80;91.30;;;;;;2039617;29;20024;-72
2021/07/01 01:56:13;;;;;;;3.72;1.85;;;16.80;91.10;;;;;;2040343;28;20020;-71
2021/07/01 01:57:16;;;;;;;2.05;1.85;;;16.80;91.20;;;;;;2039673;29;20105;-72
2021/07/01 01:58:40;;;;;;;2.20;2.00;;;16.80;91.30;;;;;;2054697;28;20039;-71
2021/07/01 01:59:59;;;;;;;2.60;1.90;;;16.80;91.30;;;;;;2056279;28;20110;-71
2021/07/01 02:01:18;;;;;;;2.08;1.85;;;16.70;91.40;;;;;;2056070;28;20035;-71
2021/07/01 02:02:20;;;;;;;2.10;2.00;;;16.80;91.20;;;;;;2055411;28;20023;-72
2021/07/01 02:03:40;;;;;;;1.98;1.88;;;16.70;91.20;;;;;;2055688;28;20046;-72
2021/07/01 02:04:46;;;;;;;1.80;1.70;;;16.70;91.40;;;;;;2055406;28;20022;-71
2021/07/01 02:05:47;;;;;;;1.90;1.80;;;16.70;91.50;;;;;;2055495;28;20146;-71
2021/07/01 02:06:48;;;;;;;2.10;1.90;;;16.70;91.60;;;;;;2056322;28;20023;-71
2021/07/01 02:07:52;;;;;;;2.78;2.05;;;16.60;91.80;;;;;;2056500;28;20027;-72
2021/07/01 02:09:02;;;;;;;1.90;1.80;;;16.70;92.00;;;;;;2042032;29;20075;-74
2021/07/01 02:10:13;;;;;;;2.30;2.10;;;16.70;91.90;;;;;;2049915;28;20086;-72
2021/07/01 02:11:15;;;;;;;1.92;1.80;;;16.60;91.70;;;;;;2049484;28;20509;-71
2021/07/01 02:12:16;;;;;;;1.98;1.88;;;16.60;91.80;;;;;;2040874;29;20098;-72
2021/07/01 02:13:17;;;;;;;1.83;1.70;;;16.60;91.80;;;;;;2048859;28;20011;-72
2021/07/01 02:14:38;;;;;;;;;;;16.60;91.80;;;;;;2059389;28;20810;-71
2021/07/01 02:15:50;;;;;;;2.65;2.08;;;16.50;91.90;;;;;;2056711;28;19906;-70
2021/07/01 02:16:51;;;;;;;2.00;1.90;;;16.50;92.00;;;;;;2048840;28;20511;-71
2021/07/01 02:17:54;;;;;;;2.17;2.00;;;16.50;92.20;;;;;;2048541;28;20030;-70
2021/07/01 02:18:55;;;;;;;1.90;1.80;;;16.50;92.10;;;;;;2048535;28;20023;-71
2021/07/01 02:19:56;;;;;;;1.88;1.77;;;16.40;92.20;;;;;;2056852;28;20031;-71
2021/07/01 02:20:57;;;;;;;2.22;2.03;;;16.40;92.30;;;;;;2057256;28;20026;-71
2021/07/01 02:21:58;;;;;;;2.60;2.00;;;16.50;92.40;;;;;;2056624;28;20582;-71
2021/07/01 02:22:59;;;;;;;2.20;2.00;;;16.40;92.50;;;;;;2048694;28;20031;-71
2021/07/01 02:24:08;;;;;;;2.13;2.03;;;16.40;92.60;;;;;;2049849;28;20090;-71
2021/07/01 02:25:09;;;;;;;2.30;2.10;;;16.40;92.70;;;;;;2049729;28;20098;-70
2021/07/01 02:26:15;;;;;;;2.60;2.10;;;16.40;92.80;;;;;;2049171;28;20082;-71
2021/07/01 02:27:15;;;;;;;2.53;2.17;;;16.40;92.80;;;;;;2056512;28;20026;-71
2021/07/01 02:28:16;;;;;;;2.50;2.30;;;16.30;93.00;;;;;;2057292;28;20026;-71
2021/07/01 02:29:34;;;;;;;2.35;2.15;;;16.30;92.70;;;;;;2056295;28;20403;-70
2021/07/01 02:30:40;;;;;;;2.40;2.20;;;16.30;92.90;;;;;;2049405;28;20027;-70
2021/07/01 02:31:42;;;;;;;3.55;2.20;;;16.30;92.90;;;;;;2056852;28;20015;-71
2021/07/01 02:32:43;;;;;;;3.20;2.53;;;16.30;93.10;;;;;;2056866;28;20035;-71
2021/07/01 02:33:46;;;;;;;3.75;2.30;;;16.30;93.10;;;;;;2041068;28;20082;-71
2021/07/01 02:34:47;;;;;;;4.13;2.40;;;16.30;93.00;;;;;;2041184;28;20031;-72
2021/07/01 02:35:48;;;;;;;2.63;2.20;;;16.30;92.90;;;;;;2056771;28;20035;-71
2021/07/01 02:37:08;;;;;;;2.50;2.30;;;16.30;93.10;;;;;;2057344;28;20050;-71
2021/07/01 02:38:29;;;;;;;2.92;2.30;;;16.30;93.30;;;;;;2057179;28;20038;-71
2021/07/01 02:39:40;;;;;;;2.40;2.20;;;16.20;92.90;;;;;;2056424;28;20569;-71
2021/07/01 02:40:41;;;;;;;2.42;2.22;;;16.20;93.30;;;;;;2056624;28;20101;-71
2021/07/01 02:41:44;;;;;;;3.40;2.60;;;16.20;93.10;;;;;;2056512;28;20098;-72
2021/07/01 02:42:45;;;;;;;2.67;2.47;;;16.20;93.10;;;;;;2048535;28;20070;-70
2021/07/01 02:43:46;;;;;;;2.28;2.17;;;16.20;93.10;;;;;;2048598;28;20139;-71
2021/07/01 02:45:06;;;;;;;2.55;2.35;;;16.20;93.20;;;;;;2056874;28;20774;-71
2021/07/01 02:46:33;;;;;;;3.50;2.30;;;16.20;93.40;;;;;;2057179;28;20097;-71
2021/07/01 02:47:35;;;;;;;2.50;2.30;;;16.20;93.40;;;;;;2056199;28;20510;-71
2021/07/01 02:48:36;;;;;;;2.42;2.22;;;16.30;93.50;;;;;;2048346;29;20419;-71
2021/07/01 02:49:37;;;;;;;2.50;2.30;;;16.20;93.60;;;;;;2048292;29;20019;-71
2021/07/01 02:50:50;;;;;;;7.07;2.80;;;16.30;93.50;;;;;;2056428;28;20418;-72
2021/07/01 02:51:54;;;;;;;3.47;2.80;;;16.20;93.40;;;;;;2050107;28;20063;-70
2021/07/01 02:52:54;;;;;;;3.03;2.40;;;16.20;93.60;;;;;;2048737;28;20058;-71
2021/07/01 02:53:56;;;;;;;2.70;2.50;;;16.20;93.60;;;;;;2048415;28;20125;-71
2021/07/01 02:55:00;;;;;;;2.80;2.42;;;16.20;93.60;;;;;;2056539;28;20026;-71
2021/07/01 02:56:02;;;;;;;2.78;2.50;;;16.20;93.70;;;;;;2056474;28;20027;-71
2021/07/01 02:57:05;;;;;;;2.60;2.40;;;16.20;93.60;;;;;;2049726;28;20539;-72
2021/07/01 02:58:08;;;;;;;3.13;2.38;;;16.20;93.60;;;;;;2041196;29;20031;-71
2021/07/01 02:59:28;;;;;;;4.43;2.45;;;16.20;94.00;;;;;;2051646;28;20549;-71
2021/07/01 03:00:46;;;;;;;2.80;2.10;;;16.20;93.70;;;;;;2056982;28;20371;-71
2021/07/01 03:01:49;;;;;;;5.93;2.67;;;16.20;93.80;;;;;;2048670;29;20033;-70
2021/07/01 03:03:00;;;;;;;2.95;2.50;;;16.20;93.70;;;;;;2056746;28;20058;-70
2021/07/01 03:04:20;;;;;;;;;;;16.20;93.60;;;;;;2057654;28;20402;-70
2021/07/01 03:05:21;;;;;;;2.53;2.33;;;16.20;93.70;;;;;;2057469;28;19914;-71
2021/07/01 03:06:22;;;;;;;2.88;2.50;;;16.10;93.80;;;;;;2057142;28;20034;-70
2021/07/01 03:07:22;;;;;;;2.50;2.30;;;16.20;94.00;;;;;;2057097;28;20517;-70
2021/07/01 03:08:23;;;;;;;2.67;2.47;;;16.20;94.10;;;;;;2056450;28;20023;-70
2021/07/01 03:09:26;;;;;;;3.58;2.25;;;16.20;94.20;;;;;;2048492;28;20665;-71
2021/07/01 03:10:27;;;;;;;2.70;2.50;;;16.20;94.10;;;;;;2056626;28;20114;-72
2021/07/01 03:11:34;;;;;;;2.65;2.45;;;16.20;94.00;;;;;;2048448;28;20748;-72
2021/07/01 03:12:35;;;;;;;3.33;2.40;;;16.20;94.10;;;;;;2049229;28;20031;-72
2021/07/01 03:13:36;;;;;;;4.15;2.30;;;16.20;93.80;;;;;;2048251;29;20035;-72
2021/07/01 03:14:41;;;;;;;3.03;2.40;;;16.20;93.90;;;;;;2056416;28;20049;-72
2021/07/01 03:15:42;;;;;;;2.22;2.08;;;16.20;93.90;;;;;;2048763;28;20558;-71
2021/07/01 03:16:45;;;;;;;3.17;2.28;;;16.20;93.80;;;;;;2048644;28;20047;-72
2021/07/01 03:17:46;;;;;;;2.42;2.20;;;16.20;93.80;;;;;;2048617;28;20027;-71
2021/07/01 03:18:48;;;;;;;2.30;2.10;;;16.20;93.80;;;;;;2047688;28;20570;-71
2021/07/01 03:20:08;;;;;;;4.53;2.38;;;16.20;93.90;;;;;;2050097;28;20470;-72
2021/07/01 03:21:27;;;;;;;3.15;2.30;;;16.20;93.90;;;;;;2057000;28;20062;-72
2021/07/01 03:22:32;;;;;;;2.30;2.10;;;16.20;93.80;;;;;;2056949;28;20035;-72
2021/07/01 03:23:34;;;;;;;3.83;2.42;;;16.20;93.80;;;;;;2056989;28;20089;-72
2021/07/01 03:24:36;;;;;;;2.63;2.42;;;16.20;93.50;;;;;;2056869;28;20110;-72
2021/07/01 03:25:39;;;;;;;2.50;2.30;;;16.20;93.70;;;;;;2056138;28;20054;-70
2021/07/01 03:26:41;;;;;;;3.15;2.60;;;16.30;93.80;;;;;;2048499;28;20039;-69
2021/07/01 03:27:42;;;;;;;3.90;2.55;;;16.20;93.60;;;;;;2056162;28;20038;-70
2021/07/01 03:28:43;;;;;;;2.78;2.53;;;16.20;93.60;;;;;;2055753;28;20410;-69
2021/07/01 03:29:44;;;;;;;2.58;2.33;;;16.20;93.50;;;;;;2048318;28;20031;-71
2021/07/01 03:30:49;;;;;;;2.50;2.20;;;16.30;93.50;;;;;;2048883;28;20027;-70
2021/07/01 03:31:50;;;;;;;2.38;2.17;;;16.30;93.40;;;;;;2056548;28;20031;-70
2021/07/01 03:32:51;;;;;;;2.47;2.25;;;16.30;93.50;;;;;;2056369;28;20406;-71
2021/07/01 03:33:51;;;;;;;2.50;2.30;;;16.30;93.70;;;;;;2048248;29;20122;-71
2021/07/01 03:34:52;;;;;;;2.72;2.45;;;16.30;93.70;;;;;;2056649;28;20422;-71
2021/07/01 03:36:13;;;;;;;3.50;2.25;;;16.30;93.70;;;;;;2056969;28;20118;-70
2021/07/01 03:37:32;;;;;;;3.58;2.53;;;16.40;93.70;;;;;;2057122;28;20035;-71
2021/07/01 03:39:02;;;;;;;3.25;2.95;;;16.40;93.40;;;;;;2055401;28;20035;-71
2021/07/01 03:40:25;;;;;;;2.90;2.70;;;16.40;93.30;;;;;;2056006;28;20106;-70
2021/07/01 03:41:26;;;;;;;3.10;2.50;;;16.50;93.60;;;;;;2056394;28;20077;-72
2021/07/01 03:42:27;;;;;;;3.40;2.45;;;16.50;93.40;;;;;;2056136;28;20031;-70
2021/07/01 03:43:27;;;;;;;3.25;2.40;;;16.60;92.70;;;;;;2048534;29;20038;-70
2021/07/01 03:44:33;;;;;;;4.15;2.50;;;16.60;92.40;;;;;;2049017;28;20700;-72
2021/07/01 03:45:34;;;;;;;3.03;2.50;;;16.70;92.20;;;;;;2056269;28;20030;-71
2021/07/01 03:46:37;;;;;;;3.40;2.50;;;16.70;92.10;;;;;;2056305;28;20179;-71
2021/07/01 03:47:37;;;;;;;4.05;2.50;;;16.70;92.00;;;;;;2048423;28;20178;-71
2021/07/01 03:48:38;;;;;;;3.08;2.53;;;16.70;92.00;;;;;;2048298;28;20117;-71
2021/07/01 03:49:57;;;;;;;2.50;2.30;;;16.70;92.20;;;;;;2049006;28;20035;-71
2021/07/01 03:51:18;;;;;;;2.78;2.15;;;16.70;92.20;;;;;;2056699;28;20046;-71
2021/07/01 03:52:29;;;;;;;;;;;16.70;92.10;;;;;;2056381;28;20070;-70
2021/07/01 03:53:33;;;;;;;4.22;2.53;;;16.70;92.20;;;;;;2056237;28;20274;-70
2021/07/01 03:54:34;;;;;;;2.70;2.50;;;16.70;92.20;;;;;;2055969;28;20121;-70
2021/07/01 03:55:39;;;;;;;3.05;2.60;;;16.80;92.10;;;;;;2056125;28;20034;-70
2021/07/01 03:56:41;;;;;;;2.40;2.20;;;16.70;92.00;;;;;;2056009;28;20069;-71
2021/07/01 03:57:46;;;;;;;2.65;2.40;;;16.80;92.10;;;;;;2048540;28;20527;-71
2021/07/01 03:58:46;;;;;;;2.70;2.50;;;16.80;92.10;;;;;;2055568;28;20118;-71
2021/07/01 04:00:19;;;;;;;3.97;2.50;;;16.80;92.10;;;;;;2055520;28;20038;-70
2021/07/01 04:01:20;;;;;;;4.70;2.95;;;16.90;92.20;;;;;;2056315;28;20039;-71
2021/07/01 04:02:21;;;;;;;3.35;2.70;;;16.80;92.10;;;;;;2056426;28;20019;-70
2021/07/01 04:03:22;;;;;;;3.05;2.50;;;16.90;92.30;;;;;;2056011;28;20026;-69
2021/07/01 04:04:42;;;;;;;2.90;2.60;;;16.80;92.30;;;;;;2056166;28;20049;-71
2021/07/01 04:05:43;;;;;;;3.08;2.78;;;16.90;92.60;;;;;;2042776;28;20028;-70
2021/07/01 04:06:44;;;;;;;3.00;2.67;;;16.90;92.20;;;;;;2048163;29;20030;-70
2021/07/01 04:07:45;;;;;;;2.70;2.50;;;16.90;92.20;;;;;;2056348;28;20019;-72
2021/07/01 04:08:46;;;;;;;4.00;2.65;;;17.00;92.30;;;;;;2048000;28;20647;-71
2021/07/01 04:09:47;;;;;;;3.35;2.50;;;17.10;92.20;;;;;;2055824;28;20176;-71
2021/07/01 04:11:11;;;;;;;3.13;2.80;;;17.30;92.00;;;;;;2055899;28;20110;-71
2021/07/01 04:12:12;;;;;;;5.85;3.00;;;17.30;91.00;;;;;;2056770;28;20034;-70
2021/07/01 04:13:32;;;;;;;3.85;2.80;;;17.30;91.20;;;;;;2056524;28;20039;-70
2021/07/01 04:15:12;;;;;;;3.10;2.90;;;17.30;91.70;;;;;;2055267;28;20051;-72
2021/07/01 04:16:31;;;;;;;4.45;2.90;;;17.30;91.60;;;;;;2055395;28;20510;-71
2021/07/01 04:17:51;;;;;;;3.90;2.80;;;17.30;91.70;;;;;;2055499;28;20038;-70
2021/07/01 04:19:11;;;;;;;5.90;3.17;;;17.20;91.70;;;;;;2055127;28;20035;-72
2021/07/01 04:20:32;;;;;;;3.65;2.78;;;17.20;92.20;;;;;;2055562;28;20035;-70
2021/07/01 04:21:51;;;;;;;4.43;3.28;;;17.20;92.10;;;;;;2056686;28;20463;-70
2021/07/01 04:23:21;;;;;;;3.47;3.15;;;17.20;91.90;;;;;;2056773;28;20026;-73
2021/07/01 04:24:47;;;;;;;4.43;3.22;;;17.20;91.90;;;;;;2058426;28;20058;-73
2021/07/01 04:25:55;;;;;;;4.75;3.20;;;17.20;92.00;;;;;;2056623;28;20047;-71
2021/07/01 04:26:56;;;;;;;3.33;3.03;;;17.20;92.30;;;;;;2056889;28;20027;-71
2021/07/01 04:28:00;;;;;;;3.53;3.10;;;17.30;92.10;;;;;;2056959;28;20042;-72
2021/07/01 04:29:01;;;;;;;3.80;3.20;;;17.30;92.00;;;;;;2056161;28;20023;-70
2021/07/01 04:30:04;;;;;;;3.60;3.10;;;17.30;92.00;;;;;;2056945;28;20026;-71
2021/07/01 04:31:23;;;;;;;3.25;2.95;;;17.40;92.00;;;;;;2056088;28;20109;-71
2021/07/01 04:32:27;;;;;;;5.85;2.97;;;17.60;91.80;;;;;;2057275;28;20018;-72
2021/07/01 04:33:28;;;;;;;4.05;3.00;;;17.60;91.30;;;;;;2058022;28;20031;-71
2021/07/01 04:34:29;;;;;;;4.43;3.03;;;17.70;91.20;;;;;;2056996;28;20031;-72
2021/07/01 04:35:30;;;;;;;4.88;3.00;;;17.80;91.10;;;;;;2048434;29;20027;-73
2021/07/01 04:36:31;;;;;;;5.63;3.70;;;17.80;91.20;;;;;;2040453;29;20524;-71
2021/07/01 04:37:33;;;;;;;3.72;3.20;;;17.90;90.90;;;;;;2056808;28;20125;-70
2021/07/01 04:38:34;;;;;;;6.32;3.85;;;17.90;90.80;;;;;;2056866;28;20034;-71
2021/07/01 04:39:35;;;;;;;5.93;3.63;;;17.80;91.10;;;;;;2048049;28;20472;-70
2021/07/01 04:40:49;;;;;;;5.13;3.53;;;17.80;91.10;;;;;;2050213;28;20789;-72
2021/07/01 04:41:50;;;;;;;4.10;3.50;;;17.90;91.10;;;;;;2048561;28;20391;-72
2021/07/01 04:42:52;;;;;;;5.30;3.70;;;17.90;91.10;;;;;;2048921;28;20038;-72
2021/07/01 04:43:53;;;;;;;3.67;3.38;;;17.90;91.10;;;;;;2048419;28;20019;-72
2021/07/01 04:44:56;;;;;;;4.82;3.55;;;17.90;91.00;;;;;;2056183;28;20027;-72
2021/07/01 04:45:59;;;;;;;4.47;4.07;;;17.80;90.70;;;;;;2056377;28;20088;-72
2021/07/01 04:47:00;;;;;;;3.70;3.40;;;17.80;90.90;;;;;;2056181;28;20038;-72
2021/07/01 04:48:01;;;;;;;4.40;4.00;;;17.80;91.10;;;;;;2055957;28;20486;-71
2021/07/01 04:49:04;;;;;;;5.25;4.10;;;17.80;90.90;;;;;;2047774;28;20026;-71
2021/07/01 04:50:14;;;;;;;5.60;4.47;;;17.70;91.10;;;;;;2055778;28;20033;-72
2021/07/01 04:51:14;;;;;;;9.07;4.55;;;17.70;91.10;;;;;;2056014;28;20050;-72
2021/07/01 04:52:42;;;;;;;4.90;4.05;;;17.70;91.50;;;;;;2057169;28;20023;-71
2021/07/01 04:54:02;;;;;;;6.22;4.70;;;17.70;92.00;;;;;;2056596;28;20035;-71
2021/07/01 04:55:34;;;;;;;4.85;4.35;;;17.70;91.90;;;;;;2056869;28;20158;-71
2021/07/01 04:56:53;;;;;;;6.22;3.80;;;17.70;92.00;;;;;;2057513;28;20035;-71
2021/07/01 04:57:56;;;;;;;4.60;4.20;;;17.80;91.90;;;;;;2056758;28;20550;-70
2021/07/01 04:58:57;;;;;;;5.65;4.50;;;17.80;91.60;;;;;;2049066;28;20031;-72
2021/07/01 05:00:17;;;;;;;5.47;4.95;;;17.80;91.40;;;;;;2057681;28;20031;-70
2021/07/01 05:01:55;;;;;;;6.13;5.10;;;17.80;91.20;;;;;;2057916;28;20027;-71
2021/07/01 05:03:15;;;;;;;7.78;5.65;;;17.80;91.40;;;;;;2056656;28;20030;-71
2021/07/01 05:04:16;;;;;;;6.80;5.63;;;17.80;91.30;;;;;;2056271;28;20114;-70
2021/07/01 05:05:17;;;;;;;7.25;5.70;;;17.70;91.50;;;;;;2056228;28;20643;-70
2021/07/01 05:06:21;;;;;;;6.13;5.53;;;17.70;91.70;;;;;;2055506;28;20030;-70
2021/07/01 05:07:21;;;;;;;6.95;5.18;;;17.70;91.80;;;;;;2047678;29;20023;-71
2021/07/01 05:08:23;;;;;;;6.13;5.22;;;17.80;92.00;;;;;;2047781;28;20027;-69
2021/07/01 05:09:26;;;;;;;8.65;5.38;;;17.80;92.00;;;;;;2047824;28;20750;-72
2021/07/01 05:10:28;;;;;;;6.05;5.28;;;17.80;92.20;;;;;;2047400;28;20098;-72
2021/07/01 05:11:36;;;;;;;7.82;5.53;;;17.80;92.20;;;;;;2040502;29;20051;-72
2021/07/01 05:12:37;;;;;;;8.82;7.25;;;17.80;92.30;;;;;;2048561;28;20066;-72
2021/07/01 05:13:38;;;;;;;9.15;6.90;;;17.80;91.70;;;;;;2055623;28;20030;-72
2021/07/01 05:14:39;;;;;;;7.03;6.30;;;17.80;91.80;;;;;;2047452;29;20461;-72
2021/07/01 05:15:40;;;;;;;8.13;6.55;;;17.70;91.90;;;;;;2047699;28;20058;-71
2021/07/01 05:16:42;;;;;;;11.10;8.15;;;17.80;92.00;;;;;;2056442;28;20034;-71
2021/07/01 05:17:43;;;;;;;8.95;7.45;;;17.80;91.40;;;;;;2055070;28;20097;-71
2021/07/01 05:18:44;;;;;;;9.88;7.78;;;17.80;91.80;;;;;;2054909;28;20043;-71
2021/07/01 05:19:53;;;;;;;17.67;14.90;;;17.80;91.90;;;;;;2055830;28;20031;-72
2021/07/01 05:20:57;;;;;;;8.48;7.57;;;17.80;91.90;;;;;;2048216;28;20023;-71
2021/07/01 05:22:17;;;;;;;7.65;6.90;;;17.80;92.00;;;;;;2055957;28;20030;-72
2021/07/01 05:23:36;;;;;;;10.15;7.28;;;17.80;91.80;;;;;;2056206;28;20034;-72
2021/07/01 05:25:00;;;;;;;9.70;7.20;;;17.90;91.40;;;;;;2053127;28;20050;-70
2021/07/01 05:26:20;;;;;;;7.97;7.18;;;17.90;91.60;;;;;;2056200;28;20054;-71
2021/07/01 05:27:42;;;;;;;9.27;7.50;;;17.90;91.60;;;;;;2056226;28;20042;-70
2021/07/01 05:29:12;;;;;;;9.30;7.30;;;17.90;91.40;;;;;;2054332;28;20117;-71
2021/07/01 05:30:34;;;;;;;9.27;7.40;;;17.90;91.40;;;;;;2055314;28;20042;-73
2021/07/01 05:31:54;;;;;;;9.80;7.32;;;18.00;91.30;;;;;;2056461;28;20406;-69
2021/07/01 05:33:13;;;;;;;9.82;7.63;;;18.10;91.10;;;;;;2056254;28;20039;-71
2021/07/01 05:34:21;;;;;;;10.75;7.28;;;18.10;90.90;;;;;;2055460;28;20058;-71
2021/07/01 05:35:22;;;;;;;11.07;7.90;;;18.20;91.00;;;;;;2047529;28;20019;-72
2021/07/01 05:36:26;;;;;;;11.57;8.00;;;18.20;90.90;;;;;;2055610;28;20026;-70
2021/07/01 05:37:33;;;;;;;9.13;7.20;;;18.20;90.90;;;;;;2055562;28;20027;-70
2021/07/01 05:38:37;;;;;;;7.10;6.40;;;18.20;90.80;;;;;;2047542;28;20031;-70
2021/07/01 05:39:37;;;;;;;8.40;7.00;;;18.30;90.80;;;;;;2055307;28;20621;-70
2021/07/01 05:40:40;;;;;;;11.23;7.65;;;18.40;90.80;;;;;;2055578;28;20026;-71
2021/07/01 05:41:41;;;;;;;11.55;7.38;;;18.40;90.70;;;;;;2055594;28;20694;-71
2021/07/01 05:42:42;;;;;;;8.27;6.95;;;18.40;90.60;;;;;;2056433;28;20033;-71